createdAt,value
2023-08-17T00:02:14.375Z,7.07
2023-08-17T00:04:41.860Z,7.47
2023-08-17T00:07:08.565Z,6.90
2023-08-17T00:09:35.512Z,7.80
2023-08-17T00:12:02.330Z,7.13
2023-08-17T00:14:29.741Z,7.80
2023-08-17T00:16:56.467Z,6.95
2023-08-17T00:19:23.346Z,7.65
2023-08-17T00:21:53.829Z,7.82
2023-08-17T00:24:20.512Z,7.35
2023-08-17T00:26:47.319Z,7.57
2023-08-17T00:29:16.187Z,7.32
2023-08-17T00:31:43.041Z,6.90
2023-08-17T00:34:09.845Z,7.07
2023-08-17T00:36:37.165Z,7.55
2023-08-17T00:39:03.980Z,7.63
2023-08-17T00:41:31.531Z,7.97
2023-08-17T00:43:58.278Z,7.03
2023-08-17T00:46:25.585Z,7.60
2023-08-17T00:48:52.429Z,7.13
2023-08-17T00:51:21.603Z,6.85
2023-08-17T00:53:48.339Z,6.68
2023-08-17T00:56:15.109Z,6.78
2023-08-17T00:58:43.517Z,6.10
2023-08-17T01:01:10.566Z,7.38
2023-08-17T01:03:37.587Z,7.13
2023-08-17T01:06:04.639Z,6.80
2023-08-17T01:08:31.724Z,7.07
2023-08-17T01:11:08.611Z,6.93
2023-08-17T01:14:07.299Z,6.82
2023-08-17T01:16:47.093Z,6.72
2023-08-17T01:19:22.269Z,6.85
2023-08-17T01:21:51.486Z,6.20
2023-08-17T01:24:18.173Z,6.22
2023-08-17T01:26:45.526Z,6.22
2023-08-17T01:29:12.429Z,5.93
2023-08-17T01:31:48.602Z,5.57
2023-08-17T01:34:20.567Z,5.93
2023-08-17T01:36:57.287Z,5.50
2023-08-17T01:39:28.480Z,5.88
2023-08-17T01:41:58.469Z,6.30
2023-08-17T01:44:27.149Z,6.70
2023-08-17T01:46:54.500Z,5.93
2023-08-17T01:49:21.322Z,6.22
2023-08-17T01:51:47.996Z,5.90
2023-08-17T01:54:14.911Z,6.38
2023-08-17T01:56:41.626Z,6.00
2023-08-17T01:59:08.314Z,6.03
2023-08-17T02:01:35.030Z,6.03
2023-08-17T02:04:03.340Z,5.80
2023-08-17T02:06:30.580Z,5.90
2023-08-17T02:08:57.268Z,5.68
2023-08-17T02:11:23.955Z,5.97
2023-08-17T02:13:50.656Z,6.05
2023-08-17T02:16:17.385Z,5.72
2023-08-17T02:18:44.174Z,5.40
2023-08-17T02:21:10.965Z,5.57
2023-08-17T02:23:37.626Z,6.32
2023-08-17T02:26:04.323Z,5.38
2023-08-17T02:28:31.245Z,5.70
2023-08-17T02:30:59.419Z,5.10
2023-08-17T02:33:26.185Z,5.03
2023-08-17T02:35:53.488Z,4.63
2023-08-17T02:38:20.239Z,5.28
2023-08-17T02:40:47.007Z,4.78
2023-08-17T02:43:13.737Z,5.50
2023-08-17T02:45:40.514Z,5.57
2023-08-17T02:48:07.468Z,5.03
2023-08-17T02:50:34.226Z,4.68
2023-08-17T02:53:01.346Z,4.85
2023-08-17T02:55:27.979Z,4.18
2023-08-17T02:57:54.661Z,4.30
2023-08-17T03:00:21.412Z,4.20
2023-08-17T03:02:48.151Z,4.40
2023-08-17T03:05:14.855Z,4.53
2023-08-17T03:07:41.636Z,4.25
2023-08-17T03:10:08.593Z,4.53
2023-08-17T03:12:35.374Z,4.82
2023-08-17T03:15:02.694Z,4.00
2023-08-17T03:17:29.574Z,4.65
2023-08-17T03:19:56.367Z,4.88
2023-08-17T03:22:23.499Z,4.00
2023-08-17T03:24:50.242Z,5.03
2023-08-17T03:27:17.041Z,4.80
2023-08-17T03:29:43.776Z,4.22
2023-08-17T03:32:10.516Z,4.55
2023-08-17T03:34:37.203Z,4.68
2023-08-17T03:37:05.010Z,6.13
2023-08-17T03:39:32.108Z,5.35
2023-08-17T03:41:58.780Z,4.32
2023-08-17T03:44:25.557Z,5.05
2023-08-17T03:46:52.289Z,4.18
2023-08-17T03:49:18.991Z,4.43
2023-08-17T03:51:45.715Z,4.68
2023-08-17T03:54:13.945Z,4.22
2023-08-17T03:56:40.668Z,4.20
2023-08-17T03:59:07.877Z,4.50
2023-08-17T04:01:34.664Z,5.32
2023-08-17T04:04:01.400Z,5.18
2023-08-17T04:06:28.186Z,4.63
2023-08-17T04:08:54.885Z,5.00
2023-08-17T04:11:21.561Z,4.80
2023-08-17T04:13:48.298Z,5.30
2023-08-17T04:16:15.026Z,5.65
2023-08-17T04:18:41.721Z,5.18
2023-08-17T04:21:08.383Z,5.68
2023-08-17T04:23:35.053Z,5.57
2023-08-17T04:26:01.835Z,5.13
2023-08-17T04:28:28.561Z,4.65
2023-08-17T04:30:55.813Z,6.00
2023-08-17T04:33:22.529Z,5.13
2023-08-17T04:35:49.435Z,5.68
2023-08-17T04:38:16.099Z,5.30
2023-08-17T04:40:43.040Z,5.55
2023-08-17T04:43:11.758Z,5.53
2023-08-17T04:45:39.093Z,5.30
2023-08-17T04:48:07.316Z,5.53
2023-08-17T04:50:34.258Z,5.30
2023-08-17T04:53:01.015Z,5.32
2023-08-17T04:55:27.741Z,5.55
2023-08-17T04:57:54.512Z,5.65
2023-08-17T05:00:26.620Z,5.28
2023-08-17T05:02:53.366Z,6.07
2023-08-17T05:05:20.323Z,5.40
2023-08-17T05:07:47.055Z,5.05
2023-08-17T05:10:13.797Z,5.13
2023-08-17T05:12:40.571Z,5.22
2023-08-17T05:15:10.953Z,4.57
2023-08-17T05:17:38.129Z,4.57
2023-08-17T05:20:05.976Z,4.38
2023-08-17T05:22:32.650Z,4.53
2023-08-17T05:24:59.332Z,4.97
2023-08-17T05:27:26.268Z,4.60
2023-08-17T05:29:53.228Z,5.35
2023-08-17T05:32:19.896Z,4.78
2023-08-17T05:34:48.209Z,5.30
2023-08-17T05:37:16.468Z,4.68
2023-08-17T05:39:43.188Z,5.35
2023-08-17T05:42:11.090Z,5.28
2023-08-17T05:44:41.701Z,4.85
2023-08-17T05:47:08.468Z,5.40
2023-08-17T05:49:35.211Z,4.75
2023-08-17T05:52:02.257Z,4.53
2023-08-17T05:54:28.990Z,4.50
2023-08-17T05:56:56.170Z,4.60
2023-08-17T05:59:22.997Z,3.78
2023-08-17T06:01:49.842Z,4.03
2023-08-17T06:04:16.505Z,4.50
2023-08-17T06:06:43.313Z,3.72
2023-08-17T06:09:10.650Z,3.33
2023-08-17T06:11:37.420Z,3.78
2023-08-17T06:14:04.366Z,3.40
2023-08-17T06:16:31.134Z,3.70
2023-08-17T06:18:57.892Z,3.45
2023-08-17T06:21:24.709Z,3.97
2023-08-17T06:23:51.404Z,3.88
2023-08-17T06:26:18.088Z,3.88
2023-08-17T06:28:45.053Z,3.40
2023-08-17T06:31:11.766Z,3.33
2023-08-17T06:33:38.527Z,3.63
2023-08-17T06:36:05.557Z,4.03
2023-08-17T06:38:32.244Z,2.90
2023-08-17T06:40:59.004Z,3.08
2023-08-17T06:43:25.863Z,2.78
2023-08-17T06:45:52.572Z,2.70
2023-08-17T06:48:19.350Z,2.50
2023-08-17T06:50:46.054Z,2.88
2023-08-17T06:53:12.728Z,3.00
2023-08-17T06:55:39.514Z,3.40
2023-08-17T06:58:06.367Z,2.97
2023-08-17T07:00:36.616Z,2.90
2023-08-17T07:03:05.125Z,2.60
2023-08-17T07:05:32.011Z,2.85
2023-08-17T07:07:59.790Z,2.72
2023-08-17T07:10:26.958Z,2.67
2023-08-17T07:12:54.267Z,2.13
2023-08-17T07:15:21.121Z,2.38
2023-08-17T07:17:47.898Z,2.58
2023-08-17T07:20:17.144Z,2.20
2023-08-17T07:22:45.205Z,2.25
2023-08-17T07:25:11.993Z,2.65
2023-08-17T07:27:38.722Z,2.78
2023-08-17T07:30:05.969Z,2.40
2023-08-17T07:32:33.637Z,2.22
2023-08-17T07:35:00.445Z,2.30
2023-08-17T07:37:34.198Z,2.35
2023-08-17T07:40:01.119Z,2.50
2023-08-17T07:42:28.202Z,2.70
2023-08-17T07:44:55.086Z,2.35
2023-08-17T07:47:21.805Z,2.40
2023-08-17T07:49:49.694Z,2.40
2023-08-17T07:52:17.524Z,2.30
2023-08-17T07:54:44.334Z,2.33
2023-08-17T07:57:11.196Z,2.13
2023-08-17T07:59:38.016Z,2.35
2023-08-17T08:02:04.880Z,2.10
2023-08-17T08:04:31.685Z,2.58
2023-08-17T08:06:59.299Z,2.20
2023-08-17T08:09:26.046Z,2.00
2023-08-17T08:11:52.868Z,2.42
2023-08-17T08:14:19.664Z,2.40
2023-08-17T08:16:46.389Z,2.30
2023-08-17T08:19:14.393Z,2.28
2023-08-17T08:21:41.113Z,2.40
2023-08-17T08:24:17.615Z,2.28
2023-08-17T08:26:45.143Z,2.40
2023-08-17T08:29:11.899Z,2.20
2023-08-17T08:31:38.654Z,2.50
2023-08-17T08:34:05.953Z,2.33
2023-08-17T08:36:32.624Z,2.60
2023-08-17T08:38:59.483Z,2.60
2023-08-17T08:41:28.421Z,2.90
2023-08-17T08:43:55.643Z,2.50
2023-08-17T08:46:26.675Z,1.95
2023-08-17T08:48:54.310Z,2.47
2023-08-17T08:51:27.838Z,2.50
2023-08-17T08:54:03.446Z,2.63
2023-08-17T08:56:34.170Z,2.40
2023-08-17T08:59:04.181Z,2.30
2023-08-17T09:01:32.738Z,2.55
2023-08-17T09:04:03.998Z,2.83
2023-08-17T09:06:31.886Z,2.55
2023-08-17T09:08:59.112Z,2.25
2023-08-17T09:11:25.830Z,2.50
2023-08-17T09:13:54.159Z,2.53
2023-08-17T09:16:22.917Z,2.50
2023-08-17T09:18:54.412Z,2.53
2023-08-17T09:21:23.353Z,2.38
2023-08-17T09:24:00.281Z,2.35
2023-08-17T09:26:33.384Z,2.60
2023-08-17T09:29:01.486Z,2.40
2023-08-17T09:31:32.001Z,2.50
2023-08-17T09:33:58.730Z,2.78
2023-08-17T09:36:27.310Z,2.83
2023-08-17T09:38:54.112Z,4.30
2023-08-17T09:41:21.226Z,3.25
2023-08-17T09:43:48.864Z,2.50
2023-08-17T09:46:16.233Z,2.70
2023-08-17T09:48:46.634Z,2.63
2023-08-17T09:51:16.926Z,2.85
2023-08-17T09:53:43.924Z,2.70
2023-08-17T09:58:44.750Z,2.80
2023-08-17T10:01:12.315Z,2.72
2023-08-17T10:03:43.304Z,2.78
2023-08-17T10:06:12.358Z,2.60
2023-08-17T10:08:48.141Z,2.63
2023-08-17T10:11:20.060Z,2.67
2023-08-17T10:13:57.939Z,2.40
2023-08-17T10:16:32.727Z,2.97
2023-08-17T10:19:19.204Z,2.20
2023-08-17T10:21:51.971Z,2.47
2023-08-17T10:24:20.762Z,3.08
2023-08-17T10:26:48.326Z,2.42
2023-08-17T10:29:17.729Z,2.20
2023-08-17T10:31:48.911Z,2.92
2023-08-17T10:34:16.608Z,2.63
2023-08-17T10:36:44.013Z,2.72
2023-08-17T10:39:23.839Z,2.75
2023-08-17T10:41:53.674Z,2.25
2023-08-17T10:44:39.635Z,2.80
2023-08-17T10:50:06.552Z,2.60
2023-08-17T10:52:35.157Z,2.50
2023-08-17T10:55:13.779Z,2.58
2023-08-17T10:57:44.762Z,2.50
2023-08-17T11:00:29.180Z,2.40
2023-08-17T11:03:07.007Z,2.25
2023-08-17T11:05:55.042Z,2.63
2023-08-17T11:08:22.713Z,2.63
2023-08-17T11:11:13.535Z,2.33
2023-08-17T11:13:45.523Z,2.83
2023-08-17T11:16:17.980Z,2.72
2023-08-17T11:18:45.860Z,2.47
2023-08-17T11:21:19.406Z,2.80
2023-08-17T11:23:46.706Z,2.53
2023-08-17T11:26:17.065Z,2.60
2023-08-17T11:28:46.075Z,2.75
2023-08-17T11:31:15.140Z,2.50
2023-08-17T11:33:43.608Z,2.40
2023-08-17T11:36:11.280Z,2.72
2023-08-17T11:38:43.466Z,2.80
2023-08-17T11:41:11.137Z,2.40
2023-08-17T11:43:45.563Z,2.03
2023-08-17T11:46:13.556Z,2.92
2023-08-17T11:48:40.499Z,2.92
2023-08-17T11:51:07.271Z,2.60
2023-08-17T11:53:35.824Z,3.08
2023-08-17T11:56:06.717Z,2.38
2023-08-17T11:58:45.586Z,2.75
2023-08-17T12:01:13.950Z,2.38
2023-08-17T12:03:42.792Z,2.70
2023-08-17T12:06:10.856Z,2.95
2023-08-17T12:08:37.650Z,2.40
2023-08-17T12:11:05.238Z,2.50
2023-08-17T12:13:35.125Z,2.67
2023-08-17T12:16:02.441Z,2.72
2023-08-17T12:18:29.277Z,2.70
2023-08-17T12:20:56.851Z,2.78
2023-08-17T12:23:23.751Z,2.45
2023-08-17T12:25:55.125Z,3.00
2023-08-17T12:28:23.274Z,2.58
2023-08-17T12:31:01.782Z,2.53
2023-08-17T12:33:28.926Z,2.22
2023-08-17T12:35:56.283Z,3.05
2023-08-17T12:38:25.495Z,2.80
2023-08-17T12:40:52.394Z,2.83
2023-08-17T12:43:19.119Z,2.63
2023-08-17T12:45:45.813Z,2.60
2023-08-17T12:48:12.697Z,2.60
2023-08-17T12:53:09.254Z,2.63
2023-08-17T12:55:36.214Z,2.80
2023-08-17T12:58:03.184Z,2.83
2023-08-17T13:00:29.948Z,2.83
2023-08-17T13:02:56.758Z,2.63
2023-08-17T13:05:24.065Z,2.55
2023-08-17T13:07:50.808Z,2.83
2023-08-17T13:10:17.643Z,2.55
2023-08-17T13:12:44.328Z,2.72
2023-08-17T13:15:11.072Z,2.60
2023-08-17T13:17:37.897Z,2.70
2023-08-17T13:20:06.850Z,2.33
2023-08-17T13:22:33.728Z,2.55
2023-08-17T13:25:00.545Z,3.00
2023-08-17T13:27:28.370Z,2.78
2023-08-17T13:29:55.153Z,2.58
2023-08-17T13:32:22.032Z,2.58
2023-08-17T13:34:48.793Z,2.60
2023-08-17T13:37:15.505Z,2.65
2023-08-17T13:39:42.258Z,2.55
2023-08-17T13:42:08.937Z,2.58
2023-08-17T13:44:35.775Z,2.47
2023-08-17T13:47:02.556Z,2.50
2023-08-17T13:49:29.362Z,2.63
2023-08-17T13:51:57.634Z,2.28
2023-08-17T13:54:25.232Z,2.25
2023-08-17T13:56:52.651Z,2.30
2023-08-17T13:59:19.349Z,2.38
2023-08-17T14:01:46.193Z,2.42
2023-08-17T14:04:13.606Z,1.90
2023-08-17T14:06:40.934Z,2.25
2023-08-17T14:09:07.987Z,2.47
2023-08-17T14:11:34.821Z,2.53
2023-08-17T14:14:01.646Z,2.40
2023-08-17T14:16:28.464Z,2.38
2023-08-17T14:18:55.894Z,2.60
2023-08-17T14:21:22.719Z,2.55
2023-08-17T14:23:50.556Z,2.53
2023-08-17T14:26:17.218Z,2.40
2023-08-17T14:28:46.283Z,2.33
2023-08-17T14:31:17.114Z,2.30
2023-08-17T14:33:44.681Z,2.30
2023-08-17T14:36:11.392Z,2.33
2023-08-17T14:38:38.351Z,2.72
2023-08-17T14:41:07.613Z,3.17
2023-08-17T14:43:34.249Z,2.97
2023-08-17T14:46:01.151Z,2.63
2023-08-17T14:48:28.080Z,2.67
2023-08-17T14:50:54.818Z,2.67
2023-08-17T14:53:21.563Z,3.00
2023-08-17T14:55:50.678Z,2.95
2023-08-17T14:58:17.576Z,2.95
2023-08-17T15:00:44.375Z,3.03
2023-08-17T15:03:11.231Z,3.28
2023-08-17T15:05:38.589Z,3.35
2023-08-17T15:08:05.904Z,3.20
2023-08-17T15:10:33.846Z,3.25
2023-08-17T15:13:00.610Z,3.35
2023-08-17T15:15:27.418Z,3.70
2023-08-17T15:17:54.144Z,3.63
2023-08-17T15:20:20.912Z,3.33
2023-08-17T15:22:48.886Z,3.80
2023-08-17T15:25:17.270Z,3.95
2023-08-17T15:27:44.150Z,4.05
2023-08-17T15:30:11.276Z,3.95
2023-08-17T15:32:37.989Z,4.32
2023-08-17T15:35:05.105Z,4.53
2023-08-17T15:37:31.952Z,4.45
2023-08-17T15:39:58.707Z,4.65
2023-08-17T15:42:32.341Z,4.82
2023-08-17T15:44:59.111Z,4.90
2023-08-17T15:47:26.290Z,5.05
2023-08-17T15:49:54.060Z,4.60
2023-08-17T15:52:20.758Z,4.63
2023-08-17T15:54:47.429Z,3.97
2023-08-17T15:57:14.218Z,4.22
2023-08-17T15:59:41.052Z,4.30
2023-08-17T16:02:08.231Z,4.32
2023-08-17T16:04:35.037Z,4.47
2023-08-17T16:07:06.105Z,3.20
2023-08-17T16:09:32.841Z,4.18
2023-08-17T16:11:59.622Z,3.55
2023-08-17T16:14:26.964Z,3.38
2023-08-17T16:16:56.578Z,3.60
2023-08-17T16:19:24.207Z,3.80
2023-08-17T16:21:51.035Z,3.85
2023-08-17T16:24:17.794Z,3.78
2023-08-17T16:26:44.751Z,3.97
2023-08-17T16:29:11.469Z,3.70
2023-08-17T16:31:39.040Z,3.67
2023-08-17T16:34:05.846Z,4.10
2023-08-17T16:36:36.421Z,3.75
2023-08-17T16:39:04.092Z,4.28
2023-08-17T16:41:30.879Z,3.85
2023-08-17T16:43:57.550Z,4.50
2023-08-17T16:46:24.399Z,4.47
2023-08-17T16:48:51.197Z,3.97
2023-08-17T16:51:17.970Z,5.32
2023-08-17T16:53:50.838Z,5.15
2023-08-17T16:56:17.892Z,4.07
2023-08-17T16:58:44.636Z,13.15
2023-08-17T17:01:14.914Z,7.60
2023-08-17T17:03:43.148Z,7.93
2023-08-17T17:06:10.160Z,3.97
2023-08-17T17:08:36.907Z,5.80
2023-08-17T17:11:04.268Z,3.42
2023-08-17T17:13:31.172Z,4.40
2023-08-17T17:15:58.007Z,3.95
2023-08-17T17:18:29.477Z,3.55
2023-08-17T17:20:56.283Z,3.70
2023-08-17T17:23:23.514Z,4.65
2023-08-17T17:25:50.193Z,3.70
2023-08-17T17:28:16.866Z,3.60
2023-08-17T17:30:43.643Z,4.13
2023-08-17T17:33:10.461Z,4.50
2023-08-17T17:35:37.350Z,4.40
2023-08-17T17:38:04.178Z,4.95
2023-08-17T17:40:31.008Z,4.10
2023-08-17T17:42:57.677Z,4.63
2023-08-17T17:45:25.538Z,4.05
2023-08-17T17:47:52.406Z,4.72
2023-08-17T17:50:19.181Z,3.83
2023-08-17T17:52:48.609Z,4.47
2023-08-17T17:55:15.646Z,3.83
2023-08-17T17:57:42.390Z,4.00
2023-08-17T18:00:11.385Z,3.97
2023-08-17T18:02:38.239Z,3.92
2023-08-17T18:05:05.524Z,4.18
2023-08-17T18:07:32.262Z,4.05
2023-08-17T18:09:58.980Z,5.18
2023-08-17T18:12:28.945Z,4.47
2023-08-17T18:15:00.546Z,4.50
2023-08-17T18:17:27.938Z,4.18
2023-08-17T18:19:54.864Z,4.07
2023-08-17T18:22:22.054Z,3.88
2023-08-17T18:24:48.901Z,4.03
2023-08-17T18:27:15.575Z,4.70
2023-08-17T18:29:42.332Z,4.35
2023-08-17T18:32:09.016Z,4.45
2023-08-17T18:34:35.698Z,4.63
2023-08-17T18:37:03.675Z,4.13
2023-08-17T18:39:30.382Z,4.00
2023-08-17T18:41:57.091Z,3.85
2023-08-17T18:44:23.777Z,4.07
2023-08-17T18:46:50.439Z,4.40
2023-08-17T18:49:17.149Z,4.38
2023-08-17T18:51:43.899Z,3.72
2023-08-17T18:54:11.009Z,4.15
2023-08-17T18:56:37.731Z,3.88
2023-08-17T18:59:04.719Z,4.30
2023-08-17T19:01:31.498Z,4.13
2023-08-17T19:03:58.303Z,4.35
2023-08-17T19:06:25.023Z,3.92
2023-08-17T19:08:51.679Z,3.33
2023-08-17T19:11:18.325Z,4.18
2023-08-17T19:13:45.020Z,4.38
2023-08-17T19:16:11.778Z,3.42
2023-08-17T19:18:38.528Z,3.83
2023-08-17T19:21:05.401Z,4.35
2023-08-17T19:23:32.105Z,3.90
2023-08-17T19:25:58.784Z,3.63
2023-08-17T19:28:25.526Z,4.25
2023-08-17T19:30:52.229Z,4.75
2023-08-17T19:33:18.909Z,4.15
2023-08-17T19:35:46.371Z,5.15
2023-08-17T19:38:13.156Z,4.65
2023-08-17T19:40:40.463Z,4.50
2023-08-17T19:43:08.053Z,4.50
2023-08-17T19:45:35.474Z,4.43
2023-08-17T19:48:02.259Z,4.80
2023-08-17T19:50:29.180Z,4.82
2023-08-17T19:52:55.985Z,4.82
2023-08-17T19:55:22.716Z,6.43
2023-08-17T19:57:49.477Z,4.68
2023-08-17T20:00:16.498Z,4.47
2023-08-17T20:02:43.333Z,5.18
2023-08-17T20:05:10.402Z,4.88
2023-08-17T20:07:37.901Z,4.53
2023-08-17T20:10:05.724Z,5.05
2023-08-17T20:12:32.648Z,4.88
2023-08-17T20:14:59.484Z,5.10
2023-08-17T20:17:26.456Z,4.43
2023-08-17T20:19:53.653Z,5.47
2023-08-17T20:22:20.399Z,4.88
2023-08-17T20:24:47.102Z,4.93
2023-08-17T20:27:13.978Z,4.88
2023-08-17T20:29:40.760Z,5.43
2023-08-17T20:32:07.966Z,5.18
2023-08-17T20:34:34.725Z,4.30
2023-08-17T20:37:01.447Z,4.40
2023-08-17T20:39:29.105Z,4.93
2023-08-17T20:41:56.144Z,5.10
2023-08-17T20:44:22.867Z,5.10
2023-08-17T20:46:50.032Z,5.55
2023-08-17T20:49:17.345Z,5.15
2023-08-17T20:51:45.645Z,5.20
2023-08-17T20:54:12.385Z,5.07
2023-08-17T20:56:39.235Z,4.60
2023-08-17T20:59:05.969Z,4.10
2023-08-17T21:01:32.811Z,4.82
2023-08-17T21:03:59.765Z,4.50
2023-08-17T21:06:26.644Z,4.53
2023-08-17T21:08:53.381Z,4.68
2023-08-17T21:11:20.335Z,4.63
2023-08-17T21:13:47.313Z,5.07
2023-08-17T21:16:14.606Z,4.30
2023-08-17T21:18:41.351Z,4.72
2023-08-17T21:21:08.070Z,4.72
2023-08-17T21:23:35.277Z,4.60
2023-08-17T21:26:02.819Z,4.50
2023-08-17T21:28:29.616Z,4.35
2023-08-17T21:31:03.865Z,4.05
2023-08-17T21:33:30.979Z,4.82
2023-08-17T21:35:58.952Z,4.88
2023-08-17T21:38:25.973Z,4.38
2023-08-17T21:41:00.914Z,4.50
2023-08-17T21:45:59.999Z,5.00
2023-08-17T21:48:27.822Z,4.63
2023-08-17T21:50:54.850Z,4.97
2023-08-17T21:53:22.301Z,4.53
2023-08-17T21:55:50.784Z,4.82
2023-08-17T21:58:19.759Z,4.60
2023-08-17T22:00:47.718Z,4.40
2023-08-17T22:03:16.018Z,4.50
2023-08-17T22:05:47.034Z,4.45
2023-08-17T22:08:14.892Z,4.97
2023-08-17T22:10:42.979Z,6.10
2023-08-17T22:13:09.787Z,5.20
2023-08-17T22:15:36.458Z,5.70
2023-08-17T22:18:03.300Z,5.78
2023-08-17T22:20:30.100Z,6.07
2023-08-17T22:22:56.814Z,5.70
2023-08-17T22:25:23.735Z,5.80
2023-08-17T22:27:50.509Z,5.70
2023-08-17T22:30:17.298Z,5.22
2023-08-17T22:32:44.149Z,5.20
2023-08-17T22:35:11.752Z,5.35
2023-08-17T22:37:38.838Z,4.70
2023-08-17T22:40:07.420Z,4.82
2023-08-17T22:42:34.324Z,5.30
2023-08-17T22:45:01.038Z,4.90
2023-08-17T22:47:28.300Z,4.53
2023-08-17T22:49:55.853Z,4.88
2023-08-17T22:52:22.699Z,4.55
2023-08-17T22:54:49.859Z,5.20
2023-08-17T22:57:16.840Z,4.38
2023-08-17T22:59:43.808Z,4.75
2023-08-17T23:02:10.554Z,4.90
2023-08-17T23:04:37.365Z,4.97
2023-08-17T23:07:04.035Z,4.40
2023-08-17T23:09:32.938Z,4.78
2023-08-17T23:11:59.756Z,4.72
2023-08-17T23:14:26.505Z,4.40
2023-08-17T23:16:53.232Z,4.40
2023-08-17T23:19:19.965Z,3.95
2023-08-17T23:21:46.685Z,4.18
2023-08-17T23:24:13.389Z,4.18
2023-08-17T23:26:40.311Z,4.50
2023-08-17T23:29:08.824Z,4.75
2023-08-17T23:31:35.615Z,5.03
2023-08-17T23:34:02.378Z,5.63
2023-08-17T23:36:29.096Z,4.78
2023-08-17T23:38:55.833Z,4.50
2023-08-17T23:41:22.544Z,5.00
2023-08-17T23:43:49.208Z,4.70
2023-08-17T23:46:15.896Z,4.75
2023-08-17T23:48:42.684Z,4.72
2023-08-17T23:51:09.482Z,4.68
2023-08-17T23:53:36.184Z,4.45
2023-08-17T23:56:04.293Z,4.82
2023-08-17T23:58:30.968Z,4.78
